logo
Rechercher aéroport 
image banner adimage banner adimage banner ad
image banner ad

FAEC - Umtshezi Municipality

Situé à Estcourt, South Africa

ICAO - FAEC, IATA -

Données fournies par Airmate  

Information générale

Coordonnées: S29°2'50" E29°54'38"
Élévation : 4262 feet MSL.
Variation magnétique : -25° East
Évalué:
Voir évaluations:
[VIEW]
Voir autres Aéroports à Kwazulu-Natal

Données opérationnelles

Special qualification required
Heure actuelle UTC:
Heure actuelle locale:
Météo à : - ( 0 km )
METAR: UUOK 172106Z AUTO 23005MPS 9999 // ///007/// 19/18 Q1009 RMK QBB220 QFE739/0986
Voir NOTAMs / SUP AIP / TFR affectant cet aéroport [VIEW]
Fréquences de communication: [VIEW]

Pistes:

Identifiant RWYQFULongueur (ft)Largeur (ft)SurfaceLDA (ft)
0140260UNK
1940260UNK
1400UNK
3200UNK

Coordonnées de l'aéroport

Adresse: Estcourt South Africa

Vue satellite de FAEC